createdAt,value
2024-03-12T00:00:43.593Z,0.00
2024-03-12T00:01:34.396Z,0.00
2024-03-12T00:02:25.160Z,0.00
2024-03-12T00:03:15.956Z,0.00
2024-03-12T00:04:06.790Z,0.00
2024-03-12T00:04:57.625Z,0.00
2024-03-12T00:05:48.413Z,0.00
2024-03-12T00:06:39.370Z,0.00
2024-03-12T00:07:30.163Z,0.00
2024-03-12T00:08:20.952Z,0.00
2024-03-12T00:09:11.770Z,0.00
2024-03-12T00:10:02.792Z,0.00
2024-03-12T00:10:53.783Z,0.00
2024-03-12T00:11:44.542Z,0.00
2024-03-12T00:12:35.400Z,0.00
2024-03-12T00:13:26.150Z,0.00
2024-03-12T00:14:16.934Z,0.00
2024-03-12T00:15:07.718Z,0.00
2024-03-12T00:15:58.552Z,0.00
2024-03-12T00:16:49.306Z,0.00
2024-03-12T00:17:40.126Z,0.00
2024-03-12T00:18:30.893Z,0.00
2024-03-12T00:19:21.676Z,0.00
2024-03-12T00:20:12.470Z,0.00
2024-03-12T00:21:03.256Z,0.00
2024-03-12T00:21:54.119Z,0.00
2024-03-12T00:22:44.980Z,0.00
2024-03-12T00:23:35.754Z,0.00
2024-03-12T00:24:26.588Z,0.00
2024-03-12T00:25:17.396Z,0.00
2024-03-12T00:26:08.245Z,0.00
2024-03-12T00:26:58.994Z,0.00
2024-03-12T00:27:49.862Z,0.00
2024-03-12T00:28:40.592Z,0.00
2024-03-12T00:29:31.369Z,0.00
2024-03-12T00:30:22.178Z,0.00
2024-03-12T00:31:13.020Z,0.00
2024-03-12T00:32:03.769Z,0.00
2024-03-12T00:32:54.587Z,0.00
2024-03-12T00:33:45.531Z,0.00
2024-03-12T00:34:36.439Z,0.00
2024-03-12T00:35:27.146Z,0.00
2024-03-12T00:36:17.870Z,0.00
2024-03-12T00:37:09.043Z,0.00
2024-03-12T00:38:00.275Z,0.00
2024-03-12T00:38:51.441Z,0.00
2024-03-12T00:39:42.112Z,0.00
2024-03-12T00:40:33.243Z,0.00
2024-03-12T00:41:24.470Z,0.00
2024-03-12T00:42:15.551Z,0.00
2024-03-12T00:43:06.584Z,0.00
2024-03-12T00:43:57.479Z,0.00
2024-03-12T00:44:48.549Z,0.00
2024-03-12T00:45:40.420Z,0.00
2024-03-12T00:46:30.481Z,0.00
2024-03-12T00:47:21.408Z,0.00
2024-03-12T00:48:12.754Z,0.00
2024-03-12T00:49:03.679Z,0.00
2024-03-12T00:49:57.839Z,0.00
2024-03-12T00:50:45.532Z,0.00
2024-03-12T00:51:36.459Z,0.00
2024-03-12T00:52:27.437Z,0.00
2024-03-12T00:53:18.391Z,0.00
2024-03-12T00:54:09.167Z,0.00
2024-03-12T00:55:00.053Z,0.00
2024-03-12T00:55:51.193Z,0.00
2024-03-12T00:56:42.386Z,0.00
2024-03-12T00:57:33.479Z,0.00
2024-03-12T00:58:24.429Z,0.00
2024-03-12T00:59:15.765Z,0.00
2024-03-12T01:00:06.330Z,0.00
2024-03-12T01:00:57.065Z,0.00
2024-03-12T01:01:47.862Z,0.00
2024-03-12T01:02:38.864Z,0.00
2024-03-12T01:03:29.947Z,0.00
2024-03-12T01:04:20.670Z,0.00
2024-03-12T01:05:11.791Z,0.00
2024-03-12T01:06:03.061Z,0.00
2024-03-12T01:06:54.200Z,0.00
2024-03-12T01:07:45.373Z,0.00
2024-03-12T01:08:36.164Z,0.00
2024-03-12T01:09:26.827Z,0.00
2024-03-12T01:10:18.183Z,0.00
2024-03-12T01:11:09.065Z,0.00
2024-03-12T01:12:00.216Z,0.00
2024-03-12T01:12:51.176Z,0.00
2024-03-12T01:13:42.012Z,0.00
2024-03-12T01:14:32.725Z,0.00
2024-03-12T01:15:23.489Z,0.00
2024-03-12T01:16:14.733Z,0.00
2024-03-12T01:17:05.995Z,0.00
2024-03-12T01:17:56.764Z,0.00
2024-03-12T01:18:47.892Z,0.00
2024-03-12T01:19:39.137Z,0.00
2024-03-12T01:20:30.212Z,0.00
2024-03-12T01:21:20.944Z,0.00
2024-03-12T01:22:53.340Z,0.00
2024-03-12T01:24:24.743Z,0.00
2024-03-12T01:25:15.269Z,0.00
2024-03-12T01:26:06.364Z,0.00
2024-03-12T01:26:57.588Z,0.00
2024-03-12T01:27:48.920Z,0.00
2024-03-12T01:28:39.595Z,0.00
2024-03-12T01:29:30.887Z,0.00
2024-03-12T01:30:22.443Z,0.00
2024-03-12T01:31:13.140Z,0.00
2024-03-12T01:32:03.713Z,0.00
2024-03-12T01:32:54.816Z,0.00
2024-03-12T01:33:45.478Z,0.00
2024-03-12T01:34:36.525Z,0.00
2024-03-12T01:35:27.195Z,0.00
2024-03-12T01:36:18.310Z,0.00
2024-03-12T01:37:09.300Z,0.00
2024-03-12T01:38:00.572Z,0.00
2024-03-12T01:38:51.537Z,0.00
2024-03-12T01:39:42.838Z,0.00
2024-03-12T01:40:33.768Z,0.00
2024-03-12T01:41:24.917Z,0.00
2024-03-12T01:42:15.965Z,0.00
2024-03-12T01:43:07.306Z,0.00
2024-03-12T01:43:58.121Z,0.00
2024-03-12T01:44:49.003Z,0.00
2024-03-12T01:45:39.955Z,0.00
2024-03-12T01:46:30.773Z,0.00
2024-03-12T01:47:21.556Z,0.00
2024-03-12T01:48:13.160Z,0.00
2024-03-12T01:49:03.472Z,0.00
2024-03-12T01:49:54.243Z,0.00
2024-03-12T01:50:45.038Z,0.00
2024-03-12T01:51:35.937Z,0.00
2024-03-12T01:52:26.713Z,0.00
2024-03-12T01:53:17.559Z,0.00
2024-03-12T01:54:08.330Z,0.00
2024-03-12T01:54:59.257Z,0.00
2024-03-12T01:55:50.031Z,0.00
2024-03-12T01:56:40.881Z,0.00
2024-03-12T01:57:31.693Z,0.00
2024-03-12T01:58:22.558Z,0.00
2024-03-12T01:59:13.366Z,0.00
2024-03-12T02:00:04.275Z,0.00
2024-03-12T02:00:55.211Z,0.00
2024-03-12T02:01:46.048Z,0.00
2024-03-12T02:02:36.835Z,0.00
2024-03-12T02:03:27.740Z,0.00
2024-03-12T02:04:18.503Z,0.00
2024-03-12T02:05:09.502Z,0.00
2024-03-12T02:06:00.468Z,0.00
2024-03-12T02:06:51.655Z,0.00
2024-03-12T02:07:42.512Z,0.00
2024-03-12T02:08:33.809Z,0.00
2024-03-12T02:09:24.467Z,0.00
2024-03-12T02:10:15.211Z,0.00
2024-03-12T02:11:06.241Z,0.00
2024-03-12T02:11:57.474Z,0.00
2024-03-12T02:12:48.727Z,0.00
2024-03-12T02:13:39.677Z,0.00
2024-03-12T02:14:30.656Z,0.00
2024-03-12T02:15:21.472Z,0.00
2024-03-12T02:16:12.351Z,0.00
2024-03-12T02:17:03.344Z,0.00
2024-03-12T02:17:54.340Z,0.00
2024-03-12T02:18:45.288Z,0.00
2024-03-12T02:19:36.527Z,0.00
2024-03-12T02:20:27.841Z,0.00
2024-03-12T02:21:18.461Z,0.00
2024-03-12T02:22:09.358Z,0.00
2024-03-12T02:23:00.504Z,0.00
2024-03-12T02:23:51.522Z,0.00
2024-03-12T02:24:42.410Z,0.00
2024-03-12T02:25:33.312Z,0.00
2024-03-12T02:26:24.462Z,0.00
2024-03-12T02:27:15.628Z,0.00
2024-03-12T02:28:06.462Z,0.00
2024-03-12T02:28:57.293Z,0.00
2024-03-12T02:29:48.007Z,0.00
2024-03-12T02:30:39.202Z,0.00
2024-03-12T02:31:29.924Z,0.00
2024-03-12T02:32:21.177Z,0.00
2024-03-12T02:33:11.847Z,0.00
2024-03-12T02:34:03.019Z,0.00
2024-03-12T02:34:53.837Z,0.00
2024-03-12T02:35:45.050Z,0.00
2024-03-12T02:36:35.961Z,0.00
2024-03-12T02:37:26.853Z,0.00
2024-03-12T02:38:17.677Z,0.00
2024-03-12T02:39:08.628Z,0.00
2024-03-12T02:39:59.832Z,0.00
2024-03-12T02:40:50.924Z,0.00
2024-03-12T02:41:41.792Z,0.00
2024-03-12T02:42:33.026Z,0.00
2024-03-12T02:43:23.882Z,0.00
2024-03-12T02:44:14.914Z,0.00
2024-03-12T02:45:05.891Z,0.00
2024-03-12T02:45:56.740Z,0.00
2024-03-12T02:46:47.759Z,0.00
2024-03-12T02:47:38.747Z,0.00
2024-03-12T02:48:29.766Z,0.00
2024-03-12T02:49:20.984Z,0.00
2024-03-12T02:50:11.937Z,0.00
2024-03-12T02:51:03.189Z,0.00
2024-03-12T02:51:54.219Z,0.00
2024-03-12T02:52:45.316Z,0.00
2024-03-12T02:53:36.274Z,0.00
2024-03-12T02:54:27.483Z,0.00
2024-03-12T02:55:18.327Z,0.00
2024-03-12T02:56:09.150Z,0.00
2024-03-12T02:56:59.812Z,0.00
2024-03-12T02:57:51.125Z,0.00
2024-03-12T02:58:41.627Z,0.00
2024-03-12T02:59:32.626Z,0.00
2024-03-12T03:00:23.503Z,0.00
2024-03-12T03:01:14.515Z,0.00
2024-03-12T03:02:05.340Z,0.00
2024-03-12T03:02:56.537Z,0.00
2024-03-12T03:03:47.667Z,0.00
2024-03-12T03:04:38.714Z,0.00
2024-03-12T03:05:29.407Z,0.00
2024-03-12T03:06:20.594Z,0.00
2024-03-12T03:07:11.292Z,0.00
2024-03-12T03:08:02.414Z,0.00
2024-03-12T03:08:53.099Z,0.00
2024-03-12T03:09:44.525Z,0.00
2024-03-12T03:10:35.116Z,0.00
2024-03-12T03:11:26.372Z,0.00
2024-03-12T03:12:17.103Z,0.00
2024-03-12T03:13:07.958Z,0.00
2024-03-12T03:13:58.781Z,0.00
2024-03-12T03:14:49.628Z,0.00
2024-03-12T03:15:40.399Z,0.00
2024-03-12T03:16:31.297Z,0.00
2024-03-12T03:17:21.855Z,0.00
2024-03-12T03:18:12.656Z,0.00
2024-03-12T03:19:03.794Z,0.00
2024-03-12T03:19:54.802Z,0.00
2024-03-12T03:20:45.765Z,0.00
2024-03-12T03:21:37.100Z,0.00
2024-03-12T03:22:28.208Z,0.00
2024-03-12T03:23:19.418Z,0.00
2024-03-12T03:24:10.637Z,0.00
2024-03-12T03:25:02.040Z,0.00
2024-03-12T03:25:52.595Z,0.00
2024-03-12T03:26:43.576Z,0.00
2024-03-12T03:27:34.299Z,0.00
2024-03-12T03:28:25.602Z,0.00
2024-03-12T03:29:16.274Z,0.00
2024-03-12T03:30:07.040Z,0.00
2024-03-12T03:30:58.494Z,0.00
2024-03-12T03:31:48.544Z,0.00
2024-03-12T03:32:39.303Z,0.00
2024-03-12T03:33:30.233Z,0.00
2024-03-12T03:34:20.964Z,0.00
2024-03-12T03:35:12.332Z,0.00
2024-03-12T03:36:02.991Z,0.00
2024-03-12T03:36:53.914Z,0.00
2024-03-12T03:37:44.629Z,0.00
2024-03-12T03:38:35.468Z,0.00
2024-03-12T03:39:26.352Z,0.00
2024-03-12T03:40:17.216Z,0.00
2024-03-12T03:41:07.989Z,0.00
2024-03-12T03:41:58.834Z,0.00
2024-03-12T03:42:49.659Z,0.00
2024-03-12T03:43:40.416Z,0.00
2024-03-12T03:44:31.644Z,0.00
2024-03-12T03:45:22.543Z,0.00
2024-03-12T03:46:13.392Z,0.00
2024-03-12T03:47:04.221Z,0.00
2024-03-12T03:47:55.048Z,0.00
2024-03-12T03:48:45.926Z,0.00
2024-03-12T03:49:36.683Z,0.00
2024-03-12T03:50:27.576Z,0.00
2024-03-12T03:51:18.367Z,0.00
2024-03-12T03:52:09.323Z,0.00
2024-03-12T03:53:00.153Z,0.00
2024-03-12T03:53:51.042Z,0.00
2024-03-12T03:54:41.851Z,0.00
2024-03-12T03:55:32.630Z,0.00
2024-03-12T03:56:23.424Z,0.00
2024-03-12T03:57:14.359Z,0.00
2024-03-12T03:58:05.260Z,0.00
2024-03-12T03:58:56.090Z,0.00
2024-03-12T03:59:46.882Z,0.00
2024-03-12T04:00:37.866Z,0.00
2024-03-12T04:01:28.664Z,0.00
2024-03-12T04:02:19.499Z,0.00
2024-03-12T04:03:10.279Z,0.00
2024-03-12T04:04:01.178Z,0.00
2024-03-12T04:04:51.944Z,0.00
2024-03-12T04:05:42.833Z,0.00
2024-03-12T04:06:34.020Z,0.00
2024-03-12T04:07:24.828Z,0.00
2024-03-12T04:08:15.639Z,0.00
2024-03-12T04:09:06.518Z,0.00
2024-03-12T04:09:57.369Z,0.00
2024-03-12T04:10:48.239Z,0.00
2024-03-12T04:11:39.129Z,0.00
2024-03-12T04:12:30.065Z,0.00
2024-03-12T04:13:20.870Z,0.00
2024-03-12T04:14:11.667Z,0.00
2024-03-12T04:15:02.465Z,0.00
2024-03-12T04:15:53.362Z,0.00
2024-03-12T04:16:44.187Z,0.00
2024-03-12T04:17:35.082Z,0.00
2024-03-12T04:18:25.888Z,0.00
2024-03-12T04:19:16.794Z,0.00
2024-03-12T04:20:07.627Z,0.00
2024-03-12T04:20:58.518Z,0.00
2024-03-12T04:21:49.302Z,0.00
2024-03-12T04:22:40.189Z,0.00
2024-03-12T04:23:30.938Z,0.00
2024-03-12T04:24:21.777Z,0.00
2024-03-12T04:25:12.621Z,0.00
2024-03-12T04:26:03.464Z,0.00
2024-03-12T04:26:54.213Z,0.00
2024-03-12T04:27:45.116Z,0.00
2024-03-12T04:28:36.019Z,0.00
2024-03-12T04:29:26.925Z,0.00
2024-03-12T04:30:17.718Z,0.00
2024-03-12T04:31:08.617Z,0.00
2024-03-12T04:31:59.482Z,0.00
2024-03-12T04:32:50.305Z,0.00
2024-03-12T04:33:41.095Z,0.00
2024-03-12T04:34:31.881Z,0.00
2024-03-12T04:35:22.697Z,0.00
2024-03-12T04:36:13.572Z,0.00
2024-03-12T04:37:04.447Z,0.00
2024-03-12T04:37:55.283Z,0.00
2024-03-12T04:38:46.077Z,0.00
2024-03-12T04:39:36.994Z,0.00
2024-03-12T04:40:27.728Z,0.00
2024-03-12T04:41:18.520Z,0.00
2024-03-12T04:42:09.277Z,0.00
2024-03-12T04:43:00.056Z,0.00
2024-03-12T04:43:50.813Z,0.00
2024-03-12T04:44:41.677Z,0.00
2024-03-12T04:45:32.528Z,0.00
2024-03-12T04:46:23.364Z,0.00
2024-03-12T04:47:14.144Z,0.00
2024-03-12T04:48:05.100Z,0.00
2024-03-12T04:48:55.837Z,0.00
2024-03-12T04:49:46.631Z,0.00
2024-03-12T04:50:37.403Z,0.00
2024-03-12T04:51:28.242Z,0.00
2024-03-12T04:52:18.983Z,0.00
2024-03-12T04:53:09.831Z,0.00
2024-03-12T04:54:00.775Z,0.00
2024-03-12T04:54:51.460Z,0.00
2024-03-12T04:55:42.209Z,0.00
2024-03-12T04:56:33.078Z,0.00
2024-03-12T04:57:23.828Z,0.00
2024-03-12T04:58:14.695Z,0.00
2024-03-12T04:59:05.441Z,0.00
2024-03-12T04:59:56.251Z,0.00
2024-03-12T05:00:47.174Z,0.00
2024-03-12T05:01:38.134Z,0.00
2024-03-12T05:02:28.941Z,0.00
2024-03-12T05:03:19.855Z,0.00
2024-03-12T05:04:15.869Z,0.00
2024-03-12T05:05:02.649Z,0.00
2024-03-12T05:05:52.802Z,0.00
2024-03-12T05:06:43.634Z,0.00
2024-03-12T05:07:34.468Z,0.00
2024-03-12T05:08:25.270Z,0.00
2024-03-12T05:09:16.170Z,0.00
2024-03-12T05:10:07.079Z,0.00
2024-03-12T05:11:00.255Z,0.00
2024-03-12T05:11:49.048Z,0.00
2024-03-12T05:12:39.978Z,0.00
2024-03-12T05:13:30.724Z,0.00
2024-03-12T05:14:21.852Z,0.00
2024-03-12T05:15:12.631Z,0.00
2024-03-12T05:16:03.447Z,0.00
2024-03-12T05:16:54.203Z,0.00
2024-03-12T05:17:44.938Z,0.00
2024-03-12T05:18:35.825Z,0.00
2024-03-12T05:19:26.646Z,0.00
2024-03-12T05:20:17.528Z,0.00
2024-03-12T05:21:08.396Z,0.00
2024-03-12T05:21:59.738Z,0.00
2024-03-12T05:22:50.521Z,0.00
2024-03-12T05:23:41.138Z,0.00
2024-03-12T05:24:32.260Z,0.00
2024-03-12T05:25:23.127Z,0.00
2024-03-12T05:26:13.974Z,0.00
2024-03-12T05:27:05.263Z,0.00
2024-03-12T05:27:56.091Z,0.00
2024-03-12T05:28:46.948Z,0.00
2024-03-12T05:29:37.845Z,0.00
2024-03-12T05:30:28.731Z,0.00
2024-03-12T05:31:19.611Z,0.00
2024-03-12T05:32:10.479Z,0.00
2024-03-12T05:33:01.481Z,0.00
2024-03-12T05:33:52.389Z,0.00
2024-03-12T05:34:43.256Z,0.00
2024-03-12T05:35:34.128Z,0.00
2024-03-12T05:36:25.017Z,0.00
2024-03-12T05:37:15.957Z,0.00
2024-03-12T05:38:06.860Z,0.00
2024-03-12T05:38:57.740Z,0.00
2024-03-12T05:39:48.685Z,0.00
2024-03-12T05:40:39.551Z,0.00
2024-03-12T05:41:30.430Z,0.00
2024-03-12T05:42:21.313Z,0.00
2024-03-12T05:43:12.258Z,0.00
2024-03-12T05:44:03.092Z,0.00
2024-03-12T05:44:54.081Z,0.00
2024-03-12T05:45:45.045Z,0.00
2024-03-12T05:46:35.977Z,0.00
2024-03-12T05:47:26.867Z,0.00
2024-03-12T05:48:17.771Z,0.00
2024-03-12T05:49:08.683Z,0.00
2024-03-12T05:50:02.821Z,0.00
2024-03-12T05:50:50.540Z,0.00
2024-03-12T05:51:41.449Z,0.00
2024-03-12T05:52:32.309Z,0.00
2024-03-12T05:53:23.215Z,0.00
2024-03-12T05:54:14.095Z,0.00
2024-03-12T05:55:05.028Z,0.00
2024-03-12T05:55:55.874Z,0.00
2024-03-12T05:56:46.767Z,0.00
2024-03-12T05:57:37.681Z,0.00
2024-03-12T05:58:28.546Z,0.00
2024-03-12T05:59:19.465Z,0.00
2024-03-12T06:00:10.336Z,0.00
2024-03-12T06:01:01.303Z,0.00
2024-03-12T06:01:52.252Z,0.00
2024-03-12T06:02:43.382Z,0.00
2024-03-12T06:03:34.325Z,0.00
2024-03-12T06:04:25.257Z,0.00
2024-03-12T06:05:16.132Z,0.00
2024-03-12T06:06:07.000Z,0.00
2024-03-12T06:06:57.936Z,0.00
2024-03-12T06:07:48.789Z,0.00
2024-03-12T06:08:39.678Z,0.00
2024-03-12T06:09:30.627Z,0.00
2024-03-12T06:10:21.492Z,0.00
2024-03-12T06:11:12.397Z,0.00
2024-03-12T06:12:03.272Z,0.00
2024-03-12T06:12:54.232Z,0.00
2024-03-12T06:13:45.122Z,0.00
2024-03-12T06:14:35.987Z,0.00
2024-03-12T06:15:26.890Z,0.00
2024-03-12T06:16:17.806Z,0.00
2024-03-12T06:17:08.678Z,0.00
2024-03-12T06:17:59.581Z,0.00
2024-03-12T06:18:50.561Z,0.00
2024-03-12T06:19:41.445Z,0.00
2024-03-12T06:20:32.319Z,0.00
2024-03-12T06:21:23.190Z,0.00
2024-03-12T06:22:14.138Z,0.00
2024-03-12T06:23:04.996Z,0.00
2024-03-12T06:23:55.882Z,0.00
2024-03-12T06:24:46.610Z,0.00
2024-03-12T06:25:37.182Z,0.00
2024-03-12T06:26:28.333Z,0.00
2024-03-12T06:27:19.103Z,0.00
2024-03-12T06:28:09.818Z,0.00
2024-03-12T06:29:00.750Z,0.00
2024-03-12T06:29:51.643Z,0.00
2024-03-12T06:30:42.585Z,0.00
2024-03-12T06:31:33.433Z,5.62
2024-03-12T06:32:24.334Z,5.62
2024-03-12T06:33:15.238Z,5.62
2024-03-12T06:34:06.188Z,5.62
2024-03-12T06:34:57.067Z,5.62
2024-03-12T06:35:47.929Z,5.62
2024-03-12T06:36:38.832Z,5.62
2024-03-12T06:37:29.723Z,5.62
2024-03-12T06:38:20.637Z,5.62
2024-03-12T06:39:11.554Z,5.62
2024-03-12T06:40:02.542Z,5.62
2024-03-12T06:40:53.402Z,5.62
2024-03-12T06:41:44.309Z,5.62
2024-03-12T06:42:35.214Z,5.62
2024-03-12T06:43:26.083Z,5.62
2024-03-12T06:44:17.040Z,5.62
2024-03-12T06:45:07.937Z,5.62
2024-03-12T06:45:58.865Z,5.62
2024-03-12T06:46:49.733Z,5.62
2024-03-12T06:47:40.678Z,5.62
2024-03-12T06:48:31.571Z,5.62
2024-03-12T06:49:22.464Z,5.62
2024-03-12T06:50:13.370Z,5.62
2024-03-12T06:51:04.260Z,5.62
2024-03-12T06:51:55.278Z,5.62
2024-03-12T06:52:46.158Z,5.62
2024-03-12T06:53:37.124Z,5.62
2024-03-12T06:54:28.156Z,5.62
2024-03-12T06:55:19.132Z,5.62
2024-03-12T06:56:10.077Z,5.62
2024-03-12T06:57:00.924Z,5.62
2024-03-12T06:57:51.840Z,5.62
2024-03-12T06:58:42.728Z,5.62
2024-03-12T06:59:33.666Z,11.25
2024-03-12T07:00:24.606Z,11.25
2024-03-12T07:01:15.728Z,11.25
2024-03-12T07:02:06.142Z,11.25
2024-03-12T07:02:57.034Z,11.25
2024-03-12T07:03:50.701Z,11.25
2024-03-12T07:04:38.722Z,11.25
2024-03-12T07:05:29.636Z,11.25
2024-03-12T07:06:20.529Z,11.25
2024-03-12T07:07:11.474Z,11.25
2024-03-12T07:08:02.395Z,11.25
2024-03-12T07:08:53.290Z,11.25
2024-03-12T07:09:44.328Z,11.25
2024-03-12T07:10:35.202Z,11.25
2024-03-12T07:11:26.186Z,11.25
2024-03-12T07:12:17.087Z,11.25
2024-03-12T07:13:08.097Z,11.25
2024-03-12T07:13:58.989Z,11.25
2024-03-12T07:14:49.920Z,11.25
2024-03-12T07:15:40.994Z,11.25
2024-03-12T07:16:32.000Z,11.25
2024-03-12T07:17:22.924Z,11.25
2024-03-12T07:18:13.881Z,11.25
2024-03-12T07:19:04.805Z,11.25
2024-03-12T07:19:55.716Z,11.25
2024-03-12T07:20:46.674Z,11.25
2024-03-12T07:21:37.549Z,11.25
2024-03-12T07:22:28.460Z,11.25
2024-03-12T07:23:19.388Z,11.25
2024-03-12T07:24:10.301Z,11.25
2024-03-12T07:25:01.258Z,11.25
2024-03-12T07:25:52.150Z,11.25
2024-03-12T07:26:43.058Z,11.25
2024-03-12T07:27:33.999Z,11.25
2024-03-12T07:28:25.298Z,11.25
2024-03-12T07:29:15.688Z,11.25
2024-03-12T07:30:06.604Z,11.25
2024-03-12T07:30:57.582Z,11.25
2024-03-12T07:31:48.459Z,11.25
2024-03-12T07:32:39.426Z,11.25
2024-03-12T07:33:30.316Z,11.25
2024-03-12T07:34:21.292Z,11.25
2024-03-12T07:35:12.224Z,11.25
2024-03-12T07:36:03.146Z,11.25
2024-03-12T07:36:54.080Z,11.25
2024-03-12T07:37:44.974Z,11.25
2024-03-12T07:38:35.907Z,11.25
2024-03-12T07:39:26.873Z,11.25
2024-03-12T07:40:18.073Z,11.25
2024-03-12T07:41:08.383Z,11.25
2024-03-12T07:41:59.311Z,11.25
2024-03-12T07:42:50.254Z,11.25
2024-03-12T07:43:41.143Z,11.25
2024-03-12T07:44:32.066Z,11.25
2024-03-12T07:45:22.978Z,11.25
2024-03-12T07:46:13.955Z,11.25
2024-03-12T07:47:04.862Z,11.25
2024-03-12T07:47:55.807Z,11.25
2024-03-12T07:48:46.702Z,11.25
2024-03-12T07:49:37.868Z,11.25
2024-03-12T07:50:28.437Z,11.25
2024-03-12T07:51:19.313Z,11.25
2024-03-12T07:52:10.717Z,11.25
2024-03-12T07:53:01.062Z,11.25
2024-03-12T07:53:51.969Z,11.25
2024-03-12T07:54:42.888Z,11.25
2024-03-12T07:55:33.802Z,11.25
2024-03-12T07:56:24.734Z,11.25
2024-03-12T07:57:17.573Z,11.25
2024-03-12T07:58:06.716Z,11.25
2024-03-12T07:58:57.561Z,11.25
2024-03-12T07:59:48.495Z,11.25
2024-03-12T08:00:39.464Z,11.25
2024-03-12T08:01:30.343Z,11.25
2024-03-12T08:02:21.238Z,11.25
2024-03-12T08:03:12.155Z,11.25
2024-03-12T08:04:03.097Z,11.25
2024-03-12T08:04:53.992Z,11.25
2024-03-12T08:05:44.931Z,11.25
2024-03-12T08:06:35.894Z,11.25
2024-03-12T08:07:26.767Z,11.25
2024-03-12T08:08:17.749Z,11.25
2024-03-12T08:09:09.646Z,11.25
2024-03-12T08:09:59.471Z,11.25
2024-03-12T08:10:50.391Z,11.25
2024-03-12T08:11:41.311Z,11.25
2024-03-12T08:12:32.227Z,11.25
2024-03-12T08:13:23.136Z,11.25
2024-03-12T08:14:14.050Z,11.25
2024-03-12T08:15:04.978Z,11.25
2024-03-12T08:15:55.924Z,11.25
2024-03-12T08:16:46.818Z,11.25
2024-03-12T08:17:37.794Z,11.25
2024-03-12T08:18:28.749Z,11.25
2024-03-12T08:19:19.810Z,11.25
2024-03-12T08:20:10.690Z,11.25
2024-03-12T08:21:01.617Z,11.25
2024-03-12T08:21:52.580Z,11.25
2024-03-12T08:22:43.466Z,11.25
2024-03-12T08:23:34.384Z,11.25
2024-03-12T08:24:25.303Z,11.25
2024-03-12T08:25:17.920Z,11.25
2024-03-12T08:26:07.325Z,11.25
2024-03-12T08:26:58.269Z,11.25
2024-03-12T08:27:49.202Z,11.25
2024-03-12T08:28:40.161Z,11.25
2024-03-12T08:29:31.055Z,11.25
2024-03-12T08:30:21.928Z,11.25
2024-03-12T08:31:19.308Z,16.88
2024-03-12T08:32:04.965Z,16.88
2024-03-12T08:32:54.775Z,16.88
2024-03-12T08:33:45.702Z,16.88
2024-03-12T08:34:36.593Z,16.88
2024-03-12T08:35:27.513Z,16.88
2024-03-12T08:36:18.453Z,11.25
2024-03-12T08:37:09.475Z,11.25
2024-03-12T08:38:00.365Z,11.25
2024-03-12T08:38:51.263Z,11.25
2024-03-12T08:39:42.217Z,11.25
2024-03-12T08:40:33.197Z,11.25
2024-03-12T08:41:24.103Z,11.25
2024-03-12T08:42:15.019Z,11.25
2024-03-12T08:43:08.029Z,11.25
2024-03-12T08:43:57.002Z,11.25
2024-03-12T08:44:47.907Z,11.25
2024-03-12T08:45:38.845Z,11.25
2024-03-12T08:46:30.132Z,11.25
2024-03-12T08:47:20.372Z,11.25
2024-03-12T08:48:11.349Z,11.25
2024-03-12T08:49:02.353Z,11.25
2024-03-12T08:49:53.288Z,11.25
2024-03-12T08:50:44.206Z,11.25
2024-03-12T08:51:35.579Z,11.25
2024-03-12T08:52:26.027Z,11.25
2024-03-12T08:53:17.001Z,11.25
2024-03-12T08:54:07.936Z,11.25
2024-03-12T08:54:58.882Z,11.25
2024-03-12T08:55:49.775Z,11.25
2024-03-12T08:56:40.680Z,11.25
2024-03-12T08:57:31.620Z,11.25
2024-03-12T08:58:22.560Z,11.25
2024-03-12T08:59:13.428Z,11.25
2024-03-12T09:00:04.357Z,11.25
2024-03-12T09:00:55.367Z,11.25
2024-03-12T09:01:46.516Z,11.25
2024-03-12T09:02:37.462Z,11.25
2024-03-12T09:03:28.449Z,11.25
2024-03-12T09:04:19.466Z,11.25
2024-03-12T09:05:10.778Z,11.25
2024-03-12T09:06:01.282Z,11.25
2024-03-12T09:06:52.255Z,11.25
2024-03-12T09:07:43.159Z,11.25
2024-03-12T09:08:34.085Z,11.25
2024-03-12T09:09:24.996Z,11.25
2024-03-12T09:10:15.942Z,11.25
2024-03-12T09:11:06.850Z,11.25
2024-03-12T09:11:57.769Z,11.25
2024-03-12T09:12:48.679Z,11.25
2024-03-12T09:13:39.575Z,11.25
2024-03-12T09:14:30.489Z,11.25
2024-03-12T09:15:24.411Z,11.25
2024-03-12T09:16:12.660Z,11.25
2024-03-12T09:17:03.545Z,11.25
2024-03-12T09:17:54.546Z,11.25
2024-03-12T09:18:45.610Z,11.25
2024-03-12T09:19:36.575Z,11.25
2024-03-12T09:20:27.490Z,11.25
2024-03-12T09:21:18.426Z,11.25
2024-03-12T09:22:09.438Z,11.25
2024-03-12T09:23:00.347Z,11.25
2024-03-12T09:23:57.152Z,11.25
2024-03-12T09:24:43.178Z,11.25
2024-03-12T09:25:32.863Z,11.25
2024-03-12T09:26:23.771Z,11.25
2024-03-12T09:27:14.679Z,11.25
2024-03-12T09:28:05.688Z,11.25
2024-03-12T09:28:56.677Z,16.88
2024-03-12T09:29:47.557Z,16.88
2024-03-12T09:30:38.518Z,16.88
2024-03-12T09:31:29.409Z,16.88
2024-03-12T09:32:20.344Z,16.88
2024-03-12T09:33:11.277Z,16.88
2024-03-12T09:34:02.212Z,16.88
2024-03-12T09:34:53.106Z,16.88
2024-03-12T09:35:44.017Z,16.88
2024-03-12T09:36:34.952Z,16.88
2024-03-12T09:37:25.878Z,16.88
2024-03-12T09:38:16.789Z,16.88
2024-03-12T09:39:07.688Z,16.88
2024-03-12T09:39:58.714Z,16.88
2024-03-12T09:40:49.619Z,16.88
2024-03-12T09:41:40.586Z,16.88
2024-03-12T09:42:31.457Z,16.88
2024-03-12T09:43:22.367Z,16.88
2024-03-12T09:44:13.306Z,16.88
2024-03-12T09:45:04.195Z,16.88
2024-03-12T09:45:55.160Z,16.88
2024-03-12T09:46:46.033Z,16.88
2024-03-12T09:47:37.025Z,16.88
2024-03-12T09:48:27.912Z,16.88
2024-03-12T09:49:18.875Z,16.88
2024-03-12T09:50:09.737Z,16.88
2024-03-12T09:51:00.656Z,16.88
2024-03-12T09:51:51.608Z,16.88
2024-03-12T09:52:42.535Z,22.50
2024-03-12T09:53:33.443Z,22.50
2024-03-12T09:54:24.414Z,22.50
2024-03-12T09:55:15.431Z,22.50
2024-03-12T09:56:07.469Z,22.50
2024-03-12T09:56:57.349Z,22.50
2024-03-12T09:57:48.362Z,22.50
2024-03-12T09:58:39.703Z,22.50
2024-03-12T09:59:30.095Z,22.50
2024-03-12T10:00:21.029Z,22.50
2024-03-12T10:01:11.993Z,22.50
2024-03-12T10:02:05.696Z,22.50
2024-03-12T10:02:53.995Z,22.50
2024-03-12T10:03:44.974Z,22.50
2024-03-12T10:04:35.859Z,28.12
2024-03-12T10:05:26.757Z,28.12
2024-03-12T10:06:17.701Z,28.12
2024-03-12T10:07:08.717Z,28.12
2024-03-12T10:07:59.641Z,28.12
2024-03-12T10:08:50.527Z,28.12
2024-03-12T10:09:41.444Z,28.12
2024-03-12T10:10:32.450Z,28.12
2024-03-12T10:11:23.424Z,28.12
2024-03-12T10:12:14.314Z,28.12
2024-03-12T10:13:05.297Z,28.12
2024-03-12T10:13:56.213Z,28.12
2024-03-12T10:14:47.133Z,28.12
2024-03-12T10:15:38.128Z,28.12
2024-03-12T10:16:29.187Z,28.12
2024-03-12T10:17:20.086Z,28.12
2024-03-12T10:18:11.033Z,33.75
2024-03-12T10:19:01.956Z,33.75
2024-03-12T10:19:52.866Z,33.75
2024-03-12T10:20:43.751Z,33.75
2024-03-12T10:21:34.909Z,33.75
2024-03-12T10:22:25.823Z,33.75
2024-03-12T10:23:16.919Z,33.75
2024-03-12T10:24:07.355Z,33.75
2024-03-12T10:24:58.301Z,33.75
2024-03-12T10:25:49.179Z,33.75
2024-03-12T10:26:40.085Z,33.75
2024-03-12T10:27:31.015Z,28.12
2024-03-12T10:28:21.972Z,28.12
2024-03-12T10:29:12.858Z,28.12
2024-03-12T10:30:03.771Z,28.12
2024-03-12T10:30:54.709Z,28.12
2024-03-12T10:31:45.608Z,28.12
2024-03-12T10:32:36.531Z,33.75
2024-03-12T10:33:27.436Z,33.75
2024-03-12T10:34:18.451Z,33.75
2024-03-12T10:35:09.356Z,33.75
2024-03-12T10:36:00.290Z,33.75
2024-03-12T10:36:51.836Z,33.75
2024-03-12T10:37:42.269Z,33.75
2024-03-12T10:38:33.219Z,33.75
2024-03-12T10:39:24.140Z,33.75
2024-03-12T10:40:15.054Z,33.75
2024-03-12T10:41:05.934Z,33.75
2024-03-12T10:41:56.857Z,33.75
2024-03-12T10:42:47.787Z,33.75
2024-03-12T10:43:38.703Z,39.38
2024-03-12T10:44:29.616Z,39.38
2024-03-12T10:45:20.545Z,33.75
2024-03-12T10:46:11.495Z,33.75
2024-03-12T10:47:02.465Z,33.75
2024-03-12T10:47:53.350Z,33.75
2024-03-12T10:48:44.275Z,33.75
2024-03-12T10:49:35.171Z,33.75
2024-03-12T10:50:26.092Z,33.75
2024-03-12T10:51:17.018Z,33.75
2024-03-12T10:52:08.185Z,33.75
2024-03-12T10:52:58.519Z,33.75
2024-03-12T10:53:49.459Z,33.75
2024-03-12T10:54:40.562Z,33.75
2024-03-12T10:55:31.580Z,33.75
2024-03-12T10:56:22.472Z,33.75
2024-03-12T10:57:13.390Z,33.75
2024-03-12T10:58:04.356Z,33.75
2024-03-12T10:58:55.264Z,33.75
2024-03-12T10:59:46.168Z,33.75
2024-03-12T11:00:37.106Z,33.75
2024-03-12T11:01:28.090Z,33.75
2024-03-12T11:02:18.980Z,28.12
2024-03-12T11:03:09.897Z,28.12
2024-03-12T11:04:01.092Z,28.12
2024-03-12T11:04:51.417Z,28.12
2024-03-12T11:05:42.330Z,28.12
2024-03-12T11:06:33.286Z,28.12
2024-03-12T11:07:24.172Z,28.12
2024-03-12T11:08:15.126Z,28.12
2024-03-12T11:09:06.030Z,28.12
2024-03-12T11:09:56.975Z,28.12
2024-03-12T11:10:47.981Z,28.12